Aérodrome :
LOGIN :

S'inscrire | Disclaimer

   EN    FR    IT 

 










Légende :    VFR   VFR Marginal   IFR   IFR Intensif   IFR Très Intensif
Visi : 
Plafond : 
>= 8 km
>= 3000ft
5 à 8 km
1000 à 3000 ft
1500m à 5 km
500 à 1000 ft
800 à 1500m
200 à 500 ft
< 800m
< 200 ft
Symboles :   Orages  Brouillard  Fortes neiges  Fortes précipitations  Vent > 20 kt
SIGMETs :   Divers  Orages  Givrage  Turbulence  Onde Orograph.  Cendres Volcan.






- Altitude de l'aérodrome : 163 ft
- Code IATA : IST


LTBA - Ataturk

DERNIER METAR :
  • 141150Z 09006KT CAVOK 18/07 Q1002 NOSIG RMK RWY23 10006KT 070V140 RWY35R 08006KT 050V110 RWY17L 11007KT 080V140

METARs EXPIRÉS :
  • 141120Z 10008KT CAVOK 17/07 Q1002 NOSIG RMK RWY23 12007KT RWY35R 09007KT RWY17L 12006KT 090V160
  • 141050Z 11008KT CAVOK 17/07 Q1002 NOSIG
  • 141020Z 12010KT CAVOK 17/07 Q1002 NOSIG RMK RWY23 11007KT 080V150 RWY35R 10009KT RWY17L 13008KT
  • 140950Z 11009KT CAVOK 16/07 Q1002 NOSIG RMK RWY23 13007KT 090V160 RWY35R 11010KT RWY17L 13008KT
  • 140920Z 12009KT CAVOK 16/07 Q1003 NOSIG RMK RWY23 12008KT 090V150 RWY35R 10009KT 080V140 RWY17L 13009KT

TAF TAF LTBA
Valide du 14 à 12h jusqu'au 15 à 18h UTC


141040Z 1412/1518 12012KT CAVOK
BECMG 1412/1415 06012KT
BECMG 1418/1421 VRB02KT
BECMG 1503/1506 36012KT SCT025 BKN100
TEMPO 1508/1512 -SHRA SCT012 BKN025
BECMG 1512/1515 VRB02KT



MET'MAP, la Météo Aéronautique d'un coup d'oeil ! - Copyright ORBIFLY Décembre 2007 - Disclaimer

ORBIFLY MET'MAP TEAM :

Programmation & Développement : Alexandra Zaïnal
Sur une idée originale de : Baudouin d'Aumeries
Assistance à la programmation : Marc-Olivier Méhu
Soutien technique & logistique : Manuel Goepfert

Contact : metmap@orbifly.com




SOURCES & CREDITS :

   NOAA